This is the latest recevied weather packets stored in our database for station/object WA1NHP. If no packets are shown the sender has not sent any weather packets the latest 10 day(s).
| Time | Temp. | Humidity | Pressure | Rain* | Wind** | Luminosity | Snow |
|---|---|---|---|---|---|---|---|
| 1777337044 | 13.89° C | 48% | 1023.9 hPa | 0 mm | - | 0 W/m² | - |
| 1777336444 | 14.44° C | 47% | 1023.9 hPa | 0 mm | - | 0 W/m² | - |
| 1777335844 | 15° C | 45% | 1023.9 hPa | 0 mm | - | 0 W/m² | - |
| 1777335244 | 15° C | 45% | 1023.9 hPa | 0 mm | - | 0 W/m² | - |
| 1777334644 | 15.56° C | 44% | 1023.9 hPa | 0 mm | - | 0 W/m² | - |
| 1777334044 | 15.56° C | 43% | 1023.9 hPa | 0 mm | - | 0 W/m² | - |
| 1777333443 | 16.11° C | 42% | 1023.9 hPa | 0 mm | - | 0 W/m² | - |
| 1777332845 | 16.11° C | 42% | 1023.9 hPa | 0 mm | - | 5 W/m² | - |
| 1777332244 | 16.67° C | 41% | 1023.9 hPa | 0 mm | - | 9 W/m² | - |
| 1777331644 | 17.22° C | 39% | 1023.9 hPa | 0 mm | - | 12 W/m² | - |
| 1777331044 | 17.22° C | 38% | 1023.9 hPa | 0 mm | - | 14 W/m² | - |
| 1777330444 | 17.78° C | 38% | 1023.9 hPa | 0 mm | - | 18 W/m² | - |
| 1777329844 | 17.78° C | 38% | 1023.9 hPa | 0 mm | - | 21 W/m² | - |
| 1777329244 | 18.33° C | 38% | 1023.9 hPa | 0 mm | - | 25 W/m² | - |
| 1777328644 | 18.33° C | 36% | 1023.9 hPa | 0 mm | - | 30 W/m² | - |
| 1777328044 | 18.33° C | 36% | 1023.9 hPa | 0 mm | - | 30 W/m² | - |
| 1777327444 | 18.89° C | 35% | 1023.9 hPa | 0 mm | - | 33 W/m² | - |
| 1777326844 | 18.89° C | 36% | 1023.9 hPa | 0 mm | - | 113 W/m² | - |
| 1777326245 | 19.44° C | 33% | 1023.9 hPa | 0 mm | - | 148 W/m² | - |
| 1777325643 | 19.44° C | 34% | 1023.9 hPa | 0 mm | - | 202 W/m² | - |
| 1777325044 | 19.44° C | 35% | 1023.9 hPa | 0 mm | - | 234 W/m² | - |
| 1777324444 | 19.44° C | 36% | 1023.9 hPa | 0 mm | - | 309 W/m² | - |
| 1777323844 | 20° C | 32% | 1023.9 hPa | 0 mm | - | 120 W/m² | - |
| 1777323243 | 20° C | 32% | 1023.9 hPa | 0 mm | - | 260 W/m² | - |
| 1777322644 | 20.56° C | 33% | 1023.9 hPa | 0 mm | - | 318 W/m² | - |
* Rain latest hour (hover to see other rain measurements)
** Current wind speed in m/s (hover to see current wind gust speed)